sensor_id;sensor_type;location;lat;lon;timestamp;P1;durP1;ratioP1;P2;durP2;ratioP2
53925;SDS011;39836;52.754;6.866;2022-07-15T12:03:09;3.13;;;0.73;;
53925;SDS011;39836;52.754;6.866;2022-07-15T12:05:37;1.92;;;0.70;;
53925;SDS011;39836;52.754;6.866;2022-07-15T12:08:03;2.50;;;0.75;;
53925;SDS011;39836;52.754;6.866;2022-07-15T12:10:36;5.55;;;0.82;;
53925;SDS011;39836;52.754;6.866;2022-07-15T12:13:05;4.57;;;0.60;;
53925;SDS011;39836;52.754;6.866;2022-07-15T12:15:34;3.28;;;0.80;;
53925;SDS011;39836;52.754;6.866;2022-07-15T12:18:11;3.55;;;1.15;;
53925;SDS011;39836;52.754;6.866;2022-07-15T12:20:51;3.00;;;0.90;;
53925;SDS011;39836;52.754;6.866;2022-07-15T12:23:29;3.55;;;0.85;;
53925;SDS011;39836;52.754;6.866;2022-07-15T12:26:09;4.38;;;0.90;;
53925;SDS011;39836;52.754;6.866;2022-07-15T12:28:36;2.25;;;0.60;;
53925;SDS011;39836;52.754;6.866;2022-07-15T12:31:03;6.13;;;1.25;;
53925;SDS011;39836;52.754;6.866;2022-07-15T12:33:33;1.00;;;0.55;;
53925;SDS011;39836;52.754;6.866;2022-07-15T12:36:17;4.85;;;0.73;;
53925;SDS011;39836;52.754;6.866;2022-07-15T12:38:45;1.27;;;0.50;;
53925;SDS011;39836;52.754;6.866;2022-07-15T12:41:26;4.00;;;0.65;;
53925;SDS011;39836;52.754;6.866;2022-07-15T12:43:59;5.22;;;0.80;;
53925;SDS011;39836;52.754;6.866;2022-07-15T12:47:15;3.28;;;0.75;;
53925;SDS011;39836;52.754;6.866;2022-07-15T12:52:30;1.38;;;0.50;;
53925;SDS011;39836;52.754;6.866;2022-07-15T12:54:57;4.15;;;0.70;;
53925;SDS011;39836;52.754;6.866;2022-07-15T12:57:29;3.78;;;0.70;;
53925;SDS011;39836;52.754;6.866;2022-07-15T13:00:21;2.33;;;0.63;;
53925;SDS011;39836;52.754;6.866;2022-07-15T13:05:32;3.55;;;0.73;;
53925;SDS011;39836;52.754;6.866;2022-07-15T13:08:04;2.05;;;0.90;;
53925;SDS011;39836;52.754;6.866;2022-07-15T13:10:54;3.42;;;0.80;;
53925;SDS011;39836;52.754;6.866;2022-07-15T13:13:22;4.10;;;0.90;;
53925;SDS011;39836;52.754;6.866;2022-07-15T13:15:50;5.97;;;0.98;;
53925;SDS011;39836;52.754;6.866;2022-07-15T13:18:17;3.25;;;0.70;;
53925;SDS011;39836;52.754;6.866;2022-07-15T13:20:43;1.55;;;0.70;;
53925;SDS011;39836;52.754;6.866;2022-07-15T13:23:09;2.28;;;0.60;;
53925;SDS011;39836;52.754;6.866;2022-07-15T13:25:35;5.70;;;0.70;;
53925;SDS011;39836;52.754;6.866;2022-07-15T13:28:05;3.38;;;0.70;;
53925;SDS011;39836;52.754;6.866;2022-07-15T13:30:31;3.53;;;0.88;;
53925;SDS011;39836;52.754;6.866;2022-07-15T13:32:57;2.97;;;0.82;;
53925;SDS011;39836;52.754;6.866;2022-07-15T13:35:23;5.65;;;0.88;;
53925;SDS011;39836;52.754;6.866;2022-07-15T13:37:49;3.42;;;0.80;;
53925;SDS011;39836;52.754;6.866;2022-07-15T13:40:15;3.17;;;0.50;;
53925;SDS011;39836;52.754;6.866;2022-07-15T13:42:41;1.63;;;0.55;;
53925;SDS011;39836;52.754;6.866;2022-07-15T13:45:07;3.42;;;0.60;;
53925;SDS011;39836;52.754;6.866;2022-07-15T13:47:34;3.20;;;0.68;;
53925;SDS011;39836;52.754;6.866;2022-07-15T13:50:00;3.17;;;0.63;;
53925;SDS011;39836;52.754;6.866;2022-07-15T13:52:45;2.17;;;0.60;;
53925;SDS011;39836;52.754;6.866;2022-07-15T13:55:13;3.60;;;0.80;;
53925;SDS011;39836;52.754;6.866;2022-07-15T13:57:40;4.78;;;0.57;;
53925;SDS011;39836;52.754;6.866;2022-07-15T14:00:07;2.13;;;0.57;;
53925;SDS011;39836;52.754;6.866;2022-07-15T14:02:37;5.28;;;0.70;;
53925;SDS011;39836;52.754;6.866;2022-07-15T14:05:04;1.35;;;0.68;;
53925;SDS011;39836;52.754;6.866;2022-07-15T14:07:31;4.63;;;0.50;;
53925;SDS011;39836;52.754;6.866;2022-07-15T14:09:57;5.32;;;0.73;;
53925;SDS011;39836;52.754;6.866;2022-07-15T14:12:23;1.45;;;0.50;;
53925;SDS011;39836;52.754;6.866;2022-07-15T14:14:48;1.73;;;0.80;;
53925;SDS011;39836;52.754;6.866;2022-07-15T14:17:14;3.10;;;0.55;;
53925;SDS011;39836;52.754;6.866;2022-07-15T14:19:40;3.95;;;0.50;;
53925;SDS011;39836;52.754;6.866;2022-07-15T14:22:05;2.50;;;0.70;;
53925;SDS011;39836;52.754;6.866;2022-07-15T14:24:31;2.97;;;0.40;;
53925;SDS011;39836;52.754;6.866;2022-07-15T14:26:57;3.45;;;0.60;;
53925;SDS011;39836;52.754;6.866;2022-07-15T14:29:22;2.67;;;0.60;;
53925;SDS011;39836;52.754;6.866;2022-07-15T14:31:48;2.50;;;0.50;;
53925;SDS011;39836;52.754;6.866;2022-07-15T14:34:14;1.95;;;0.50;;
53925;SDS011;39836;52.754;6.866;2022-07-15T14:36:40;2.75;;;0.75;;
53925;SDS011;39836;52.754;6.866;2022-07-15T14:39:06;3.17;;;0.80;;
53925;SDS011;39836;52.754;6.866;2022-07-15T14:41:32;1.48;;;0.70;;
53925;SDS011;39836;52.754;6.866;2022-07-15T14:43:58;2.78;;;0.52;;
53925;SDS011;39836;52.754;6.866;2022-07-15T14:46:24;1.85;;;0.65;;
53925;SDS011;39836;52.754;6.866;2022-07-15T14:48:50;3.85;;;0.60;;
53925;SDS011;39836;52.754;6.866;2022-07-15T14:51:15;0.85;;;0.50;;
53925;SDS011;39836;52.754;6.866;2022-07-15T14:53:41;5.90;;;0.73;;
53925;SDS011;39836;52.754;6.866;2022-07-15T14:56:07;3.58;;;0.80;;
53925;SDS011;39836;52.754;6.866;2022-07-15T14:58:32;2.55;;;0.50;;
53925;SDS011;39836;52.754;6.866;2022-07-15T15:00:58;3.35;;;0.77;;
53925;SDS011;39836;52.754;6.866;2022-07-15T15:03:23;7.10;;;0.80;;
53925;SDS011;39836;52.754;6.866;2022-07-15T15:05:49;2.85;;;0.60;;
53925;SDS011;39836;52.754;6.866;2022-07-15T15:08:15;2.45;;;0.60;;
53925;SDS011;39836;52.754;6.866;2022-07-15T15:10:41;1.27;;;0.50;;
53925;SDS011;39836;52.754;6.866;2022-07-15T15:13:07;2.17;;;0.60;;
53925;SDS011;39836;52.754;6.866;2022-07-15T15:15:33;4.88;;;0.95;;
53925;SDS011;39836;52.754;6.866;2022-07-15T15:17:59;3.92;;;0.60;;
53925;SDS011;39836;52.754;6.866;2022-07-15T15:20:24;2.42;;;0.73;;
53925;SDS011;39836;52.754;6.866;2022-07-15T15:22:50;4.72;;;0.90;;
53925;SDS011;39836;52.754;6.866;2022-07-15T15:25:16;4.00;;;0.80;;
53925;SDS011;39836;52.754;6.866;2022-07-15T15:28:01;1.30;;;0.52;;
53925;SDS011;39836;52.754;6.866;2022-07-15T15:30:27;3.72;;;0.73;;
53925;SDS011;39836;52.754;6.866;2022-07-15T15:32:53;4.78;;;0.70;;
53925;SDS011;39836;52.754;6.866;2022-07-15T15:35:19;4.88;;;0.70;;
53925;SDS011;39836;52.754;6.866;2022-07-15T15:37:45;2.42;;;0.50;;
53925;SDS011;39836;52.754;6.866;2022-07-15T15:40:11;3.75;;;0.70;;
53925;SDS011;39836;52.754;6.866;2022-07-15T15:42:37;2.80;;;0.82;;
53925;SDS011;39836;52.754;6.866;2022-07-15T15:45:02;2.05;;;0.60;;
53925;SDS011;39836;52.754;6.866;2022-07-15T15:47:28;3.63;;;0.88;;
53925;SDS011;39836;52.754;6.866;2022-07-15T15:49:54;2.50;;;0.88;;
53925;SDS011;39836;52.754;6.866;2022-07-15T15:52:20;2.35;;;0.70;;
53925;SDS011;39836;52.754;6.866;2022-07-15T15:54:46;2.50;;;0.88;;
53925;SDS011;39836;52.754;6.866;2022-07-15T15:57:11;3.58;;;0.80;;
53925;SDS011;39836;52.754;6.866;2022-07-15T15:59:37;2.72;;;0.80;;
53925;SDS011;39836;52.754;6.866;2022-07-15T16:02:02;3.90;;;0.90;;
53925;SDS011;39836;52.754;6.866;2022-07-15T16:04:28;4.80;;;0.90;;
53925;SDS011;39836;52.754;6.866;2022-07-15T16:06:54;3.53;;;0.82;;
53925;SDS011;39836;52.754;6.866;2022-07-15T16:09:20;3.17;;;1.10;;
53925;SDS011;39836;52.754;6.866;2022-07-15T16:11:46;2.47;;;1.00;;
53925;SDS011;39836;52.754;6.866;2022-07-15T16:14:12;3.15;;;0.80;;
53925;SDS011;39836;52.754;6.866;2022-07-15T16:16:38;2.35;;;1.08;;
53925;SDS011;39836;52.754;6.866;2022-07-15T16:19:03;2.63;;;0.70;;
53925;SDS011;39836;52.754;6.866;2022-07-15T16:21:30;4.60;;;1.00;;
53925;SDS011;39836;52.754;6.866;2022-07-15T16:24:15;3.33;;;0.90;;
53925;SDS011;39836;52.754;6.866;2022-07-15T16:26:40;6.95;;;1.25;;
53925;SDS011;39836;52.754;6.866;2022-07-15T16:29:06;2.58;;;0.85;;
53925;SDS011;39836;52.754;6.866;2022-07-15T16:31:32;3.45;;;1.10;;
53925;SDS011;39836;52.754;6.866;2022-07-15T16:33:57;3.80;;;1.20;;
53925;SDS011;39836;52.754;6.866;2022-07-15T16:36:23;3.33;;;0.80;;
53925;SDS011;39836;52.754;6.866;2022-07-15T16:38:49;2.85;;;1.15;;
53925;SDS011;39836;52.754;6.866;2022-07-15T16:41:14;3.33;;;1.00;;
53925;SDS011;39836;52.754;6.866;2022-07-15T16:43:40;4.60;;;1.23;;
53925;SDS011;39836;52.754;6.866;2022-07-15T16:46:06;2.97;;;1.05;;
53925;SDS011;39836;52.754;6.866;2022-07-15T16:48:31;4.68;;;1.25;;
53925;SDS011;39836;52.754;6.866;2022-07-15T16:50:57;3.60;;;1.30;;
53925;SDS011;39836;52.754;6.866;2022-07-15T16:53:23;1.77;;;1.00;;
53925;SDS011;39836;52.754;6.866;2022-07-15T16:55:49;3.92;;;1.13;;
53925;SDS011;39836;52.754;6.866;2022-07-15T16:58:15;4.75;;;1.20;;
53925;SDS011;39836;52.754;6.866;2022-07-15T17:00:40;2.80;;;1.10;;
53925;SDS011;39836;52.754;6.866;2022-07-15T17:03:06;5.25;;;1.42;;
53925;SDS011;39836;52.754;6.866;2022-07-15T17:05:32;6.55;;;1.35;;
53925;SDS011;39836;52.754;6.866;2022-07-15T17:07:58;5.03;;;1.15;;
53925;SDS011;39836;52.754;6.866;2022-07-15T17:10:30;3.13;;;1.10;;
53925;SDS011;39836;52.754;6.866;2022-07-15T17:12:56;4.20;;;1.35;;
53925;SDS011;39836;52.754;6.866;2022-07-15T17:15:22;2.40;;;1.10;;
53925;SDS011;39836;52.754;6.866;2022-07-15T17:17:48;5.80;;;1.15;;
53925;SDS011;39836;52.754;6.866;2022-07-15T17:20:14;5.88;;;1.42;;
53925;SDS011;39836;52.754;6.866;2022-07-15T17:22:51;4.85;;;1.10;;
53925;SDS011;39836;52.754;6.866;2022-07-15T17:28:57;5.38;;;1.20;;
53925;SDS011;39836;52.754;6.866;2022-07-15T17:32:41;3.28;;;1.48;;
53925;SDS011;39836;52.754;6.866;2022-07-15T17:35:53;4.50;;;1.30;;
53925;SDS011;39836;52.754;6.866;2022-07-15T17:38:36;5.55;;;1.48;;
